Time;durP1;ratioP1;P1;durP2;ratioP2;P2;SDS_P1;SDS_P2;PMS_P1;PMS_P2;Temp;Humidity;BMP_temperature;BMP_pressure;BME280_temperature;BME280_humidity;BME280_pressure;Samples;Min_cycle;Max_cycle;Signal;HPM_P1;HPM_P2
2022/09/21 00:01:17;;;;;;;2.05;1.70;;;19.20;50.10;;;;;;5009882;28;20541;-81
2022/09/21 00:03:43;;;;;;;2.50;1.65;;;19.30;50.20;;;;;;5028784;28;20252;-82
2022/09/21 00:06:14;;;;;;;1.70;1.60;;;19.20;50.20;;;;;;5012083;28;20209;-81
2022/09/21 00:08:40;;;;;;;1.73;1.50;;;19.30;50.30;;;;;;5028832;28;20155;-81
2022/09/21 00:11:11;;;;;;;1.50;1.40;;;19.20;50.20;;;;;;5012675;28;20159;-82
2022/09/21 00:13:37;;;;;;;4.50;1.83;;;19.20;50.20;;;;;;4995921;28;20285;-81
2022/09/21 00:16:05;;;;;;;1.70;1.60;;;19.30;50.30;;;;;;5012818;28;20562;-81
2022/09/21 00:18:32;;;;;;;1.60;1.50;;;19.30;50.30;;;;;;5028721;28;20182;-81
2022/09/21 00:20:58;;;;;;;2.15;1.85;;;19.30;50.40;;;;;;5012735;28;20191;-82
2022/09/21 00:23:25;;;;;;;1.88;1.75;;;19.30;50.40;;;;;;5013022;28;20580;-82
2022/09/21 00:26:08;;;;;;;1.65;1.50;;;19.30;50.30;;;;;;5039858;28;20222;-82
2022/09/21 00:28:39;;;;;;;1.80;1.55;;;19.20;50.30;;;;;;5045973;28;20174;-81
2022/09/21 00:31:11;;;;;;;1.60;1.50;;;19.30;50.50;;;;;;5011858;28;20182;-81
2022/09/21 00:33:41;;;;;;;1.80;1.70;;;19.20;50.40;;;;;;4995485;28;20186;-81
2022/09/21 00:36:09;;;;;;;1.65;1.55;;;19.20;50.40;;;;;;5027264;28;20182;-81
2022/09/21 00:38:39;;;;;;;2.38;1.70;;;19.30;50.40;;;;;;5044806;28;20151;-81
2022/09/21 00:41:06;;;;;;;1.67;1.50;;;19.20;50.40;;;;;;5010687;28;20250;-82
2022/09/21 00:43:33;;;;;;;2.00;1.80;;;19.20;50.50;;;;;;5045130;28;20202;-81
2022/09/21 00:46:03;;;;;;;1.70;1.60;;;19.20;50.50;;;;;;5028560;28;20261;-81
2022/09/21 00:48:29;;;;;;;1.75;1.65;;;19.30;50.60;;;;;;5027547;28;20610;-81
2022/09/21 00:51:03;;;;;;;1.55;1.45;;;19.20;50.50;;;;;;5043753;28;20162;-81
2022/09/21 00:53:33;;;;;;;1.65;1.55;;;19.30;50.60;;;;;;4994249;28;20179;-81
2022/09/21 00:55:59;;;;;;;1.77;1.65;;;19.20;50.50;;;;;;4994399;28;20215;-81
2022/09/21 00:58:33;;;;;;;2.10;1.70;;;19.20;50.60;;;;;;5027272;28;20177;-81
2022/09/21 01:00:59;;;;;;;1.75;1.65;;;19.20;50.60;;;;;;4994775;28;20178;-81
2022/09/21 01:03:29;;;;;;;1.60;1.50;;;19.30;51.30;;;;;;5043189;28;20151;-81
2022/09/21 01:05:55;;;;;;;2.20;1.77;;;19.20;50.60;;;;;;5027459;28;20179;-82
2022/09/21 01:08:25;;;;;;;1.60;1.50;;;19.20;50.70;;;;;;5043497;28;20178;-82
2022/09/21 01:11:09;;;;;;;1.50;1.40;;;19.20;50.70;;;;;;5010483;28;20205;-81
2022/09/21 01:14:03;;;;;;;1.80;1.60;;;19.20;50.70;;;;;;5044190;28;20229;-81
2022/09/21 01:16:40;;;;;;;1.73;1.38;;;19.20;50.70;;;;;;5030866;28;20170;-82
2022/09/21 01:19:28;;;;;;;1.80;1.67;;;19.20;50.70;;;;;;5044661;28;20165;-82
2022/09/21 01:21:58;;;;;;;1.77;1.50;;;19.10;51.40;;;;;;5043896;28;20155;-82
2022/09/21 01:24:36;;;;;;;1.90;1.70;;;19.10;50.70;;;;;;5043352;28;20191;-81
2022/09/21 01:27:40;;;;;;;1.67;1.58;;;19.20;50.80;;;;;;4995228;28;20177;-81
2022/09/21 01:30:14;;;;;;;1.77;1.67;;;19.20;50.80;;;;;;5044881;28;20151;-82
2022/09/21 01:32:44;;;;;;;1.83;1.55;;;19.20;50.80;;;;;;4994210;28;20297;-81
2022/09/21 01:35:24;;;;;;;1.60;1.48;;;19.20;50.80;;;;;;5027193;28;20173;-81
2022/09/21 01:38:03;;;;;;;1.85;1.70;;;19.20;50.80;;;;;;5010681;28;20233;-82
2022/09/21 01:40:40;;;;;;;1.60;1.50;;;19.10;50.80;;;;;;5011768;28;20178;-81
2022/09/21 01:43:13;;;;;;;1.58;1.42;;;19.10;50.90;;;;;;4978718;28;20182;-81
2022/09/21 01:45:42;;;;;;;1.60;1.50;;;19.20;50.90;;;;;;4994200;28;20253;-82
2022/09/21 01:48:11;;;;;;;1.65;1.55;;;19.10;50.90;;;;;;5026594;28;20158;-82
2022/09/21 01:50:44;;;;;;;1.77;1.67;;;19.10;50.90;;;;;;4976636;28;20250;-81
2022/09/21 01:53:28;;;;;;;1.70;1.50;;;19.10;50.90;;;;;;4977735;28;20179;-82
2022/09/21 01:55:57;;;;;;;1.50;1.40;;;19.20;51.00;;;;;;5025768;28;20154;-82
2022/09/21 01:58:30;;;;;;;1.60;1.50;;;19.20;51.00;;;;;;5026637;28;20159;-81
2022/09/21 02:00:56;;;;;;;1.60;1.50;;;19.10;51.00;;;;;;5010898;28;20218;-82
2022/09/21 02:03:32;;;;;;;1.58;1.25;;;19.10;51.00;;;;;;5026887;28;20151;-81
2022/09/21 02:05:58;;;;;;;2.30;1.50;;;19.20;51.00;;;;;;5010393;28;20190;-82
2022/09/21 02:08:30;;;;;;;3.08;1.70;;;19.10;51.00;;;;;;5027026;28;20201;-81
2022/09/21 02:10:57;;;;;;;1.40;1.30;;;19.10;51.00;;;;;;4993860;28;20269;-81
2022/09/21 02:13:24;;;;;;;1.90;1.35;;;19.10;51.00;;;;;;5011128;28;20170;-82
2022/09/21 02:16:11;;;;;;;1.40;1.30;;;19.10;51.10;;;;;;5010357;28;20186;-81
2022/09/21 02:19:20;;;;;;;1.45;1.35;;;19.10;51.10;;;;;;5010736;28;20250;-82
2022/09/21 02:21:57;;;;;;;1.50;1.40;;;19.10;51.10;;;;;;5019829;28;20194;-82
2022/09/21 02:24:30;;;;;;;1.40;1.30;;;19.10;51.20;;;;;;4976647;28;20214;-82
2022/09/21 02:27:05;;;;;;;1.50;1.40;;;19.10;51.20;;;;;;5011690;28;20197;-81
2022/09/21 02:29:50;;;;;;;1.45;1.30;;;19.00;51.10;;;;;;5026966;28;20170;-82
2022/09/21 02:32:37;;;;;;;1.30;1.20;;;19.10;51.20;;;;;;5027386;28;20576;-81
2022/09/21 02:35:14;;;;;;;1.58;1.40;;;19.10;51.20;;;;;;5025854;28;20179;-81
2022/09/21 02:37:55;;;;;;;1.48;1.38;;;19.10;51.30;;;;;;5027072;28;20155;-81
2022/09/21 02:40:30;;;;;;;1.60;1.50;;;19.10;51.30;;;;;;5026441;28;20166;-82
2022/09/21 02:43:01;;;;;;;1.60;1.50;;;19.10;51.30;;;;;;5026810;28;20244;-81
2022/09/21 02:45:32;;;;;;;1.30;1.20;;;19.10;51.30;;;;;;5025000;28;20198;-81
2022/09/21 02:48:01;;;;;;;1.60;1.50;;;19.10;51.30;;;;;;5010180;28;20190;-81
2022/09/21 02:50:38;;;;;;;1.50;1.40;;;19.10;51.30;;;;;;5025922;28;20163;-83
2022/09/21 02:53:04;;;;;;;1.70;1.60;;;19.10;51.40;;;;;;4992874;28;20178;-81
2022/09/21 02:55:30;;;;;;;1.50;1.40;;;19.10;51.40;;;;;;5010091;28;20190;-81
2022/09/21 02:57:56;;;;;;;1.80;1.40;;;19.10;51.40;;;;;;5026354;28;20650;-82
2022/09/21 03:00:22;;;;;;;1.60;1.50;;;19.10;51.40;;;;;;5010633;28;20201;-81
2022/09/21 03:02:52;;;;;;;1.40;1.30;;;19.00;51.40;;;;;;5010175;28;20234;-82
2022/09/21 03:05:18;;;;;;;1.38;1.23;;;19.00;51.40;;;;;;4993201;28;20246;-81
2022/09/21 03:07:44;;;;;;;1.35;1.25;;;19.10;51.50;;;;;;5010117;28;20586;-81
2022/09/21 03:10:18;;;;;;;1.50;1.40;;;19.10;51.50;;;;;;5025996;28;20155;-81
2022/09/21 03:12:44;;;;;;;1.50;1.40;;;19.00;51.40;;;;;;5009195;28;20527;-81
2022/09/21 03:15:10;;;;;;;1.10;1.00;;;19.10;51.50;;;;;;5009874;28;20181;-82
2022/09/21 03:17:36;;;;;;;1.42;1.33;;;19.00;51.50;;;;;;5010128;28;20190;-81
2022/09/21 03:20:10;;;;;;;1.52;1.40;;;19.10;51.50;;;;;;5009913;28;20163;-82
2022/09/21 03:22:36;;;;;;;1.60;1.50;;;19.10;51.50;;;;;;5009587;28;20197;-81
2022/09/21 03:25:02;;;;;;;1.25;1.15;;;19.10;51.50;;;;;;5012830;28;20230;-82
2022/09/21 03:27:28;;;;;;;1.40;1.30;;;19.00;51.50;;;;;;5010243;28;20175;-81
2022/09/21 03:29:59;;;;;;;1.50;1.40;;;19.00;51.50;;;;;;5026088;28;20177;-81
2022/09/21 03:32:30;;;;;;;1.70;1.52;;;19.00;51.50;;;;;;4992915;28;20297;-81
2022/09/21 03:35:00;;;;;;;1.15;1.05;;;19.10;51.60;;;;;;5008753;28;20209;-81
2022/09/21 03:37:30;;;;;;;1.40;1.30;;;19.00;51.60;;;;;;4997031;28;20240;-81
2022/09/21 03:39:56;;;;;;;1.48;1.38;;;19.10;51.60;;;;;;5013341;28;20185;-81
2022/09/21 03:42:26;;;;;;;1.55;1.30;;;19.00;51.60;;;;;;5030098;28;20158;-81
2022/09/21 03:44:52;;;;;;;1.58;1.40;;;19.00;51.70;;;;;;5012740;28;20242;-82
2022/09/21 03:47:19;;;;;;;1.58;1.40;;;19.00;51.70;;;;;;5046255;28;20537;-82
2022/09/21 03:49:45;;;;;;;1.40;1.30;;;19.00;51.70;;;;;;5030561;28;20154;-82
2022/09/21 03:52:11;;;;;;;1.50;1.40;;;19.00;51.70;;;;;;5046369;28;20155;-81
2022/09/21 03:54:41;;;;;;;1.27;1.17;;;19.00;51.70;;;;;;5031075;28;20178;-81
2022/09/21 03:57:17;;;;;;;1.50;1.40;;;19.00;51.70;;;;;;5012330;28;20187;-82
2022/09/21 03:59:48;;;;;;;1.60;1.50;;;19.00;51.70;;;;;;5014131;28;20184;-82
2022/09/21 04:02:15;;;;;;;1.70;1.55;;;19.00;51.70;;;;;;5029952;28;20233;-82
2022/09/21 04:04:51;;;;;;;1.40;1.25;;;19.00;51.80;;;;;;5046372;28;20258;-81
2022/09/21 04:07:21;;;;;;;1.50;1.40;;;19.00;51.70;;;;;;4995649;28;20205;-81
2022/09/21 04:09:52;;;;;;;1.42;1.33;;;19.10;51.70;;;;;;5013164;28;20182;-81
2022/09/21 04:12:25;;;;;;;1.42;1.33;;;19.00;51.80;;;;;;4996514;28;20182;-81
2022/09/21 04:14:51;;;;;;;1.83;1.30;;;19.00;51.70;;;;;;5012368;28;20236;-81
2022/09/21 04:17:17;;;;;;;1.50;1.40;;;19.00;51.70;;;;;;5029815;28;20167;-82
2022/09/21 04:19:44;;;;;;;2.10;1.20;;;19.00;51.80;;;;;;5029520;28;20162;-82
2022/09/21 04:22:11;;;;;;;1.30;1.20;;;19.00;51.80;;;;;;5046466;28;20642;-82
2022/09/21 04:24:39;;;;;;;2.03;1.33;;;19.00;51.80;;;;;;5045054;28;20309;-82
2022/09/21 04:27:07;;;;;;;1.45;1.35;;;19.00;51.80;;;;;;5047191;28;20174;-82
2022/09/21 04:29:33;;;;;;;1.30;1.20;;;19.00;51.90;;;;;;5013671;28;20238;-81
2022/09/21 04:31:59;;;;;;;1.58;1.35;;;19.00;51.80;;;;;;5012727;28;20158;-82
2022/09/21 04:34:26;;;;;;;1.20;1.10;;;19.00;51.90;;;;;;5012157;28;20170;-81
2022/09/21 04:36:53;;;;;;;1.50;1.40;;;19.00;51.90;;;;;;5011912;28;20181;-81
2022/09/21 04:39:19;;;;;;;1.30;1.20;;;19.00;51.90;;;;;;5028041;28;20242;-82
2022/09/21 04:41:47;;;;;;;1.40;1.30;;;19.00;52.00;;;;;;5012215;28;20163;-82
2022/09/21 04:44:18;;;;;;;1.58;1.40;;;19.00;51.90;;;;;;4995922;28;20661;-82
2022/09/21 04:46:44;;;;;;;1.30;1.20;;;19.00;52.00;;;;;;5009952;28;20182;-82
2022/09/21 04:49:10;;;;;;;1.27;1.15;;;19.00;52.10;;;;;;5011800;28;20163;-82
2022/09/21 04:51:41;;;;;;;1.40;1.30;;;19.00;52.10;;;;;;5027334;28;20568;-82
2022/09/21 04:54:07;;;;;;;1.40;1.30;;;19.00;52.10;;;;;;4995287;28;20193;-82
2022/09/21 04:56:33;;;;;;;1.30;1.20;;;18.90;52.00;;;;;;5011456;28;20166;-82
2022/09/21 04:58:59;;;;;;;1.10;1.10;;;19.00;52.00;;;;;;5028802;28;20170;-82
2022/09/21 05:01:29;;;;;;;1.40;1.20;;;19.00;52.10;;;;;;5011964;28;20167;-82
2022/09/21 05:04:01;;;;;;;1.40;1.30;;;19.00;52.00;;;;;;4994005;28;20219;-82
2022/09/21 05:06:28;;;;;;;1.17;1.00;;;18.90;52.10;;;;;;4992948;28;20545;-82
2022/09/21 05:11:36;;;;;;;1.30;1.20;;;19.00;51.40;;;;;;5028426;28;20184;-82
2022/09/21 05:14:04;;;;;;;0.98;0.95;;;19.00;51.20;;;;;;5026320;28;20201;-82
2022/09/21 05:16:36;;;;;;;1.02;1.00;;;19.00;51.10;;;;;;5026335;28;20205;-82
2022/09/21 05:19:02;;;;;;;1.00;1.00;;;19.00;51.00;;;;;;4992486;28;20183;-81
2022/09/21 05:21:33;;;;;;;1.13;1.02;;;19.00;50.90;;;;;;5027205;28;20214;-82
2022/09/21 05:23:59;;;;;;;0.90;0.90;;;19.00;50.80;;;;;;4993878;28;20216;-82
2022/09/21 05:26:29;;;;;;;1.08;0.98;;;19.00;50.60;;;;;;5007656;28;20290;-81
2022/09/21 05:28:56;;;;;;;1.15;0.95;;;19.00;50.60;;;;;;4974671;28;20184;-82
2022/09/21 05:31:36;;;;;;;0.95;0.82;;;19.00;50.60;;;;;;4990773;28;20167;-82
2022/09/21 05:34:27;;;;;;;0.80;0.80;;;19.00;50.60;;;;;;5006959;28;20495;-82
2022/09/21 05:37:09;;;;;;;0.80;0.80;;;19.00;50.50;;;;;;4992262;28;20163;-81
2022/09/21 05:39:45;;;;;;;0.85;0.85;;;19.10;50.50;;;;;;4944626;28;20187;-81
2022/09/21 05:42:15;;;;;;;0.73;0.73;;;19.10;50.40;;;;;;4972254;28;20262;-81
2022/09/21 05:44:48;;;;;;;0.80;0.80;;;19.00;50.40;;;;;;4988635;28;20246;-82
2022/09/21 05:47:38;;;;;;;0.95;0.88;;;18.90;50.30;;;;;;4957283;28;20194;-82
2022/09/21 05:50:41;;;;;;;0.90;0.80;;;19.00;50.30;;;;;;4972919;28;20194;-81
2022/09/21 05:53:27;;;;;;;0.98;0.70;;;19.00;50.20;;;;;;5006127;28;20172;-82
2022/09/21 05:56:05;;;;;;;0.82;0.82;;;19.10;50.20;;;;;;4957803;28;20183;-82
2022/09/21 05:58:49;;;;;;;0.60;0.60;;;19.10;50.20;;;;;;4972822;28;20574;-81
2022/09/21 06:01:28;;;;;;;0.60;0.60;;;19.00;50.00;;;;;;4959761;28;20554;-82
2022/09/21 06:04:09;;;;;;;0.60;0.60;;;19.00;50.00;;;;;;4991784;28;20260;-81
2022/09/21 06:06:38;;;;;;;0.73;0.70;;;19.10;50.30;;;;;;4963378;28;20176;-82
2022/09/21 06:09:10;;;;;;;0.57;0.57;;;19.00;50.30;;;;;;4972309;28;20534;-83
2022/09/21 06:11:53;;;;;;;0.80;0.80;;;19.00;50.30;;;;;;4960779;28;20175;-82
2022/09/21 06:14:24;;;;;;;0.80;0.73;;;19.00;50.30;;;;;;4969621;28;20191;-82
2022/09/21 06:16:53;;;;;;;0.90;0.88;;;19.00;50.30;;;;;;4954846;28;20546;-81
2022/09/21 06:19:27;;;;;;;0.80;0.80;;;19.10;50.40;;;;;;4957639;28;20187;-81
2022/09/21 07:02:14;;;;;;;;;;;;;;;;;;;;;
2022/09/21 07:05:03;;;;;;;1.58;0.80;;;19.30;51.30;;;;;;4887944;29;20224;-83
2022/09/21 07:07:35;;;;;;;2.22;0.73;;;19.30;51.40;;;;;;4859414;29;20184;-81
2022/09/21 07:10:07;;;;;;;1.45;0.88;;;19.30;51.00;;;;;;4787371;29;20239;-82
2022/09/21 07:12:46;;;;;;;1.48;0.70;;;19.40;51.40;;;;;;4776333;29;20277;-81
2022/09/21 07:15:20;;;;;;;1.10;0.80;;;19.40;51.40;;;;;;4783479;30;20188;-81
2022/09/21 07:21:54;;;;;;;0.90;0.70;;;19.30;51.40;;;;;;4800079;30;20371;-82
2022/09/21 07:24:49;;;;;;;0.70;0.70;;;19.40;51.40;;;;;;4823111;29;20282;-81
2022/09/21 07:27:18;;;;;;;1.67;0.60;;;19.40;51.30;;;;;;4822104;29;20277;-81
2022/09/21 07:33:33;;;;;;;0.90;0.68;;;19.40;51.40;;;;;;4883592;29;20191;-81
2022/09/21 07:36:12;;;;;;;1.00;0.82;;;19.50;51.50;;;;;;4874775;29;20600;-81
2022/09/21 07:38:41;;;;;;;0.70;0.60;;;19.50;51.30;;;;;;4858417;29;20192;-80
2022/09/21 07:41:17;;;;;;;1.23;0.60;;;19.40;51.60;;;;;;4862605;29;20188;-81
2022/09/21 07:43:43;;;;;;;1.00;0.60;;;19.50;51.50;;;;;;4834709;29;20217;-81
2022/09/21 07:46:21;;;;;;;0.47;0.40;;;19.50;51.50;;;;;;4835373;29;20198;-81
2022/09/21 07:49:04;;;;;;;0.82;0.60;;;19.50;51.50;;;;;;4815896;29;20196;-81
2022/09/21 07:51:35;;;;;;;0.70;0.70;;;19.50;51.60;;;;;;4800884;29;20198;-81
2022/09/21 07:54:09;;;;;;;0.47;0.47;;;19.50;51.60;;;;;;4818055;29;20201;-81
2022/09/21 07:56:37;;;;;;;0.60;0.50;;;19.50;51.70;;;;;;4818287;29;20186;-81
2022/09/21 07:59:05;;;;;;;0.50;0.50;;;19.60;51.70;;;;;;4857506;29;20235;-81
2022/09/21 08:01:44;;;;;;;1.30;0.70;;;19.50;51.60;;;;;;4874448;29;20710;-81
2022/09/21 08:04:17;;;;;;;0.55;0.55;;;19.60;51.70;;;;;;4873543;29;20223;-81
2022/09/21 08:06:44;;;;;;;1.40;0.70;;;19.60;51.60;;;;;;4898366;29;20695;-81
2022/09/21 08:10:56;;;;;;;0.60;0.60;;;19.50;51.60;;;;;;4952257;28;20187;-80
2022/09/21 08:13:08;;;;;;;0.47;0.40;;;19.50;51.60;;;;;;4937833;29;20178;-81
2022/09/21 08:16:18;;;;;;;0.47;0.40;;;19.60;51.70;;;;;;4925089;29;20191;-81
2022/09/21 08:23:22;;;;;;;;;;;;;;;;;;;;;
2022/09/21 08:30:29;;;;;;;;;;;;;;;;;;;;;
2022/09/21 08:58:35;;;;;;;1.08;0.50;;;19.80;51.90;;;;;;4673398;30;20197;-83
2022/09/21 09:02:13;;;;;;;;;;;;;;;;;;;;;
2022/09/21 09:08:48;;;;;;;;;;;;;;;;;;;;;
2022/09/21 09:15:38;;;;;;;;;;;;;;;;;;;;;
2022/09/21 09:18:26;;;;;;;0.98;0.50;;;19.80;51.60;;;;;;4669346;30;20202;-82
2022/09/21 09:21:11;;;;;;;1.17;0.50;;;19.80;51.50;;;;;;4653964;30;20226;-84
2022/09/21 09:23:42;;;;;;;0.65;0.60;;;19.80;51.20;;;;;;4667373;30;20264;-82
2022/09/21 09:26:32;;;;;;;1.17;0.43;;;19.80;51.00;;;;;;4667361;30;20245;-83
2022/09/21 09:29:10;;;;;;;1.85;0.50;;;19.80;51.10;;;;;;4669995;30;20529;-82
2022/09/21 09:31:39;;;;;;;0.55;0.52;;;19.80;51.10;;;;;;4670741;30;20187;-84
2022/09/21 09:34:28;;;;;;;0.90;0.60;;;19.90;51.00;;;;;;4701843;30;20680;-82
2022/09/21 09:37:04;;;;;;;1.27;0.60;;;19.90;51.00;;;;;;4757417;30;20287;-82
2022/09/21 09:39:35;;;;;;;0.57;0.57;;;19.90;51.00;;;;;;4741180;30;20195;-82
2022/09/21 09:42:25;;;;;;;2.20;0.73;;;19.90;51.00;;;;;;4798314;29;20198;-84
2022/09/21 09:45:19;;;;;;;0.60;0.45;;;19.90;51.00;;;;;;4887435;29;20276;-84
2022/09/21 09:48:01;;;;;;;1.05;0.68;;;19.80;50.80;;;;;;4926990;28;20220;-84
2022/09/21 09:50:35;;;;;;;0.63;0.60;;;19.80;50.80;;;;;;4945783;28;20207;-81
2022/09/21 09:53:15;;;;;;;2.00;0.60;;;19.80;50.80;;;;;;4972721;28;20285;-83
2022/09/21 09:55:49;;;;;;;0.65;0.63;;;19.70;51.00;;;;;;4975549;28;20542;-83
2022/09/21 09:58:37;;;;;;;0.63;0.50;;;19.70;50.90;;;;;;5004319;28;20212;-82
2022/09/21 10:01:07;;;;;;;1.25;0.47;;;19.70;50.90;;;;;;4993874;28;20235;-83
2022/09/21 10:03:39;;;;;;;0.98;0.50;;;19.70;50.90;;;;;;4987427;28;20774;-82
2022/09/21 10:06:11;;;;;;;0.40;0.40;;;19.70;50.90;;;;;;5003791;28;20182;-84
2022/09/21 10:08:42;;;;;;;0.45;0.40;;;19.60;50.80;;;;;;5022640;28;20177;-84
2022/09/21 10:11:11;;;;;;;0.50;0.50;;;19.70;50.80;;;;;;5009959;28;20189;-82
2022/09/21 10:13:45;;;;;;;1.08;0.50;;;19.70;50.60;;;;;;5008421;28;20261;-82
2022/09/21 10:16:18;;;;;;;0.50;0.50;;;19.80;50.60;;;;;;5014039;28;20182;-82
2022/09/21 10:18:50;;;;;;;0.50;0.50;;;19.70;50.40;;;;;;5019107;28;20198;-83
2022/09/21 10:21:24;;;;;;;0.95;0.55;;;19.70;50.40;;;;;;4997501;28;20201;-82
2022/09/21 10:23:58;;;;;;;0.43;0.40;;;19.70;50.30;;;;;;4997909;28;20210;-83
2022/09/21 10:26:36;;;;;;;0.40;0.40;;;19.80;50.10;;;;;;5018106;28;20181;-82
2022/09/21 10:29:37;;;;;;;0.40;0.40;;;19.80;50.10;;;;;;5035362;28;20208;-82
2022/09/21 10:32:22;;;;;;;0.60;0.60;;;19.70;50.10;;;;;;5032868;28;20184;-83
2022/09/21 10:35:12;;;;;;;0.68;0.60;;;19.80;50.10;;;;;;4981885;28;20263;-85
2022/09/21 10:37:42;;;;;;;0.30;0.30;;;19.70;49.80;;;;;;5029015;28;20193;-86
2022/09/21 10:40:52;;;;;;;0.70;0.60;;;19.70;50.40;;;;;;5023279;28;20177;-85
2022/09/21 10:43:36;;;;;;;0.40;0.40;;;19.70;49.50;;;;;;4960920;28;20747;-86
2022/09/21 10:46:32;;;;;;;0.45;0.35;;;19.70;49.40;;;;;;4875996;29;20236;-86
2022/09/21 10:49:49;;;;;;;0.80;0.60;;;19.70;49.10;;;;;;4852827;29;20189;-87
2022/09/21 11:03:53;;;;;;;0.60;0.60;;;19.70;49.70;;;;;;4726173;30;20186;-85
2022/09/21 11:06:46;;;;;;;;;;;;;;;;;;;;;
2022/09/21 11:13:21;;;;;;;;;;;;;;;;;;;;;
2022/09/21 11:22:04;;;;;;;0.50;0.50;;;19.70;47.90;;;;;;5681335;23;20592;-81
2022/09/21 11:25:08;;;;;;;0.50;0.50;;;19.70;48.20;;;;;;5043006;28;20216;-82
2022/09/21 11:27:45;;;;;;;0.50;0.40;;;19.70;48.00;;;;;;5017274;28;20192;-81
2022/09/21 11:30:17;;;;;;;0.50;0.50;;;19.70;48.10;;;;;;4985382;28;20655;-81
2022/09/21 11:33:17;;;;;;;0.50;0.43;;;19.60;48.10;;;;;;4995523;28;20177;-82
2022/09/21 11:36:09;;;;;;;0.40;0.40;;;19.80;48.00;;;;;;5047311;28;20609;-81
2022/09/21 11:38:45;;;;;;;0.43;0.43;;;19.70;48.10;;;;;;4996825;28;20185;-81
2022/09/21 11:41:13;;;;;;;0.60;0.60;;;19.70;47.90;;;;;;5043030;28;20154;-81
2022/09/21 11:44:07;;;;;;;0.47;0.47;;;19.70;48.50;;;;;;5043713;28;20184;-81
2022/09/21 11:46:57;;;;;;;0.60;0.60;;;19.70;47.70;;;;;;5019474;28;20240;-81
2022/09/21 11:49:38;;;;;;;0.52;0.40;;;19.60;47.60;;;;;;5046512;28;20166;-82
2022/09/21 11:52:31;;;;;;;0.63;0.50;;;19.60;47.50;;;;;;5065511;28;20158;-82
2022/09/21 11:55:22;;;;;;;0.40;0.40;;;19.70;47.40;;;;;;5047291;28;20624;-82
2022/09/21 11:58:17;;;;;;;0.40;0.40;;;19.70;47.40;;;;;;5030578;28;20165;-83
2022/09/21 12:00:52;;;;;;;0.50;0.50;;;19.70;47.20;;;;;;5050411;28;20153;-81
2022/09/21 12:03:52;;;;;;;1.92;0.40;;;19.70;47.40;;;;;;5048886;28;20181;-83
2022/09/21 12:06:45;;;;;;;0.50;0.50;;;19.70;47.40;;;;;;5048692;28;20166;-82
2022/09/21 12:09:47;;;;;;;1.17;0.50;;;19.70;47.20;;;;;;5049879;28;20173;-81
2022/09/21 12:12:26;;;;;;;0.50;0.50;;;19.70;47.20;;;;;;5052068;28;20165;-80
2022/09/21 12:15:01;;;;;;;0.70;0.63;;;19.70;47.10;;;;;;4999777;28;20174;-81
2022/09/21 12:17:48;;;;;;;0.45;0.45;;;19.60;46.80;;;;;;5047407;28;20162;-80
2022/09/21 12:20:18;;;;;;;0.50;0.50;;;19.70;47.00;;;;;;5030028;28;20444;-80
2022/09/21 12:22:45;;;;;;;0.40;0.40;;;19.70;47.00;;;;;;5042508;28;20228;-81
2022/09/21 12:25:19;;;;;;;0.50;0.50;;;19.60;46.80;;;;;;5046490;28;20246;-81
2022/09/21 12:28:03;;;;;;;0.93;0.50;;;19.60;46.80;;;;;;5064379;28;20261;-81
2022/09/21 12:30:34;;;;;;;0.98;0.80;;;19.60;46.60;;;;;;5018122;28;20178;-82
2022/09/21 12:33:23;;;;;;;0.60;0.60;;;19.60;46.70;;;;;;5012750;28;20256;-82
2022/09/21 12:36:02;;;;;;;0.45;0.45;;;19.70;46.70;;;;;;5001010;28;20548;-81
2022/09/21 12:38:50;;;;;;;0.40;0.40;;;19.60;46.60;;;;;;5003939;28;20173;-81
2022/09/21 12:41:33;;;;;;;0.63;0.57;;;19.70;46.60;;;;;;5069949;28;20178;-80
2022/09/21 12:44:13;;;;;;;0.60;0.60;;;19.70;46.50;;;;;;5053778;28;20170;-80
2022/09/21 12:46:47;;;;;;;0.63;0.52;;;19.70;46.50;;;;;;5022386;28;20247;-80
2022/09/21 12:49:28;;;;;;;0.40;0.40;;;19.70;46.40;;;;;;5022228;28;20276;-82
2022/09/21 12:52:33;;;;;;;0.50;0.50;;;19.70;46.50;;;;;;5011167;28;20219;-82
2022/09/21 12:55:37;;;;;;;0.50;0.50;;;19.70;46.50;;;;;;4997088;28;20180;-81
2022/09/21 12:58:30;;;;;;;0.50;0.50;;;19.70;46.60;;;;;;5070298;28;20218;-80
2022/09/21 13:01:10;;;;;;;0.50;0.50;;;19.70;46.70;;;;;;5066139;28;20174;-82
2022/09/21 13:03:42;;;;;;;0.47;0.47;;;19.70;46.80;;;;;;5029964;28;20181;-82
2022/09/21 13:06:27;;;;;;;0.60;0.60;;;19.70;46.90;;;;;;5049856;28;20201;-82
2022/09/21 13:08:55;;;;;;;0.40;0.40;;;19.70;46.80;;;;;;4991703;28;20183;-82
2022/09/21 13:11:21;;;;;;;0.30;0.30;;;19.70;46.70;;;;;;4994032;28;20179;-82
2022/09/21 13:13:51;;;;;;;0.50;0.50;;;19.80;46.90;;;;;;4989783;28;20190;-82
2022/09/21 13:16:28;;;;;;;0.57;0.50;;;19.80;46.90;;;;;;4993898;28;20230;-82
2022/09/21 13:18:58;;;;;;;0.57;0.40;;;19.70;46.80;;;;;;4968738;28;20699;-83
2022/09/21 13:21:31;;;;;;;1.08;0.40;;;19.70;46.80;;;;;;4957588;28;20211;-82
2022/09/21 13:24:27;;;;;;;;;;;;;;;;;;;;;
2022/09/21 13:27:03;;;;;;;0.30;0.30;;;19.80;46.90;;;;;;4938263;28;20276;-82
2022/09/21 13:29:39;;;;;;;0.47;0.47;;;19.80;47.00;;;;;;4981470;28;20195;-83
2022/09/21 13:37:26;;;;;;;0.68;0.65;;;19.80;46.90;;;;;;5971645;23;20307;-81
2022/09/21 13:40:33;;;;;;;0.50;0.50;;;19.70;46.90;;;;;;5021680;28;20173;-81
2022/09/21 13:43:19;;;;;;;0.40;0.40;;;19.80;47.00;;;;;;5042594;28;20164;-83
2022/09/21 13:46:02;;;;;;;0.70;0.70;;;19.70;46.60;;;;;;5035288;28;20288;-82
2022/09/21 13:48:30;;;;;;;0.50;0.50;;;19.80;46.80;;;;;;5017280;28;20158;-82
2022/09/21 13:51:11;;;;;;;0.50;0.50;;;19.80;46.50;;;;;;5019257;28;20191;-82
2022/09/21 13:53:42;;;;;;;0.40;0.40;;;19.80;46.70;;;;;;4978247;28;20187;-83
2022/09/21 13:56:24;;;;;;;0.50;0.50;;;19.80;46.60;;;;;;5007240;28;20193;-82
2022/09/21 13:58:58;;;;;;;0.52;0.52;;;19.80;46.80;;;;;;4989030;28;20179;-81
2022/09/21 14:01:30;;;;;;;1.58;0.60;;;19.80;46.90;;;;;;4937669;28;20180;-81
2022/09/21 14:03:58;;;;;;;0.40;0.40;;;19.80;47.00;;;;;;4981904;28;20240;-79
2022/09/21 14:06:31;;;;;;;1.77;0.60;;;19.80;46.60;;;;;;4969349;28;20572;-81
2022/09/21 14:09:00;;;;;;;1.75;0.60;;;19.80;46.30;;;;;;4969944;28;20228;-80
2022/09/21 14:11:32;;;;;;;0.40;0.40;;;19.80;46.20;;;;;;4970145;28;20622;-80
2022/09/21 14:14:17;;;;;;;0.50;0.50;;;19.80;46.00;;;;;;4983700;28;20655;-81
2022/09/21 14:16:54;;;;;;;0.63;0.63;;;19.80;45.80;;;;;;4967975;28;20156;-80
2022/09/21 14:19:57;;;;;;;0.65;0.50;;;19.80;46.20;;;;;;5005186;28;20193;-82
2022/09/21 14:22:36;;;;;;;0.70;0.60;;;19.80;46.00;;;;;;5007586;28;20209;-82
2022/09/21 14:25:24;;;;;;;0.50;0.50;;;19.90;46.20;;;;;;5038447;28;20190;-82
2022/09/21 14:27:51;;;;;;;0.30;0.30;;;19.80;45.90;;;;;;5039955;28;20240;-82
2022/09/21 14:30:24;;;;;;;0.43;0.40;;;19.80;45.80;;;;;;5039044;28;20569;-81
2022/09/21 14:33:18;;;;;;;0.50;0.50;;;19.80;45.80;;;;;;4972933;28;20545;-82
2022/09/21 14:35:45;;;;;;;0.40;0.40;;;19.80;45.80;;;;;;5024639;28;20174;-82
2022/09/21 14:38:31;;;;;;;1.27;0.40;;;19.80;45.70;;;;;;4994007;28;20226;-81
2022/09/21 14:41:02;;;;;;;0.95;0.50;;;19.80;45.70;;;;;;5039679;28;20147;-80
2022/09/21 14:43:32;;;;;;;0.40;0.40;;;19.80;45.80;;;;;;5023710;28;20151;-80
2022/09/21 14:46:23;;;;;;;1.10;0.60;;;19.80;45.70;;;;;;5042321;28;20201;-81
2022/09/21 14:49:28;;;;;;;1.50;0.45;;;19.80;45.40;;;;;;4993198;28;20186;-80
2022/09/21 14:52:15;;;;;;;0.30;0.30;;;19.80;45.50;;;;;;5034731;28;20197;-80
2022/09/21 14:55:03;;;;;;;0.50;0.50;;;19.80;45.50;;;;;;5020705;28;20210;-81
2022/09/21 14:57:44;;;;;;;0.43;0.43;;;19.80;45.40;;;;;;5016618;28;20159;-83
2022/09/21 15:00:25;;;;;;;0.40;0.40;;;19.80;45.40;;;;;;5001178;28;20187;-81
2022/09/21 15:03:29;;;;;;;0.40;0.40;;;19.80;45.40;;;;;;5020037;28;20193;-80
2022/09/21 15:10:54;;;;;;;0.68;0.60;;;19.80;45.30;;;;;;5018137;28;20253;-80
2022/09/21 15:12:00;;;;;;;0.60;0.60;;;19.80;45.30;;;;;;5037104;28;20209;-82
2022/09/21 15:14:38;;;;;;;1.38;0.40;;;19.80;45.40;;;;;;5036142;28;20166;-81
2022/09/21 15:17:24;;;;;;;0.40;0.40;;;19.80;45.40;;;;;;5019195;28;20179;-82
2022/09/21 15:19:59;;;;;;;0.50;0.50;;;19.90;45.40;;;;;;5019550;28;20185;-82
2022/09/21 15:22:28;;;;;;;1.05;0.45;;;19.80;45.30;;;;;;5018804;28;20189;-81
2022/09/21 15:24:58;;;;;;;0.57;0.43;;;19.90;46.00;;;;;;5000744;28;20240;-81
2022/09/21 15:27:31;;;;;;;0.63;0.40;;;19.90;45.30;;;;;;4985123;28;20217;-83
2022/09/21 15:29:59;;;;;;;0.40;0.40;;;19.90;45.40;;;;;;5017556;28;20182;-81
2022/09/21 15:32:39;;;;;;;1.60;0.40;;;19.90;45.30;;;;;;5001968;28;20186;-82
2022/09/21 15:35:27;;;;;;;0.40;0.40;;;19.90;45.80;;;;;;5037136;28;20522;-81
2022/09/21 15:37:54;;;;;;;0.32;0.32;;;19.90;45.60;;;;;;5035754;28;20222;-82
2022/09/21 15:40:24;;;;;;;0.60;0.60;;;19.90;45.50;;;;;;5003198;28;20609;-83
2022/09/21 15:43:19;;;;;;;0.40;0.40;;;19.90;45.60;;;;;;4986018;28;20212;-82
2022/09/21 15:45:53;;;;;;;0.40;0.40;;;19.90;45.60;;;;;;4986893;28;20222;-83
2022/09/21 15:48:22;;;;;;;0.57;0.50;;;19.90;45.60;;;;;;5038598;28;20221;-81
2022/09/21 15:50:56;;;;;;;0.40;0.40;;;19.90;45.70;;;;;;4989013;28;20660;-80